createdAt,value
2022-12-04T00:01:12.423Z,105.25
2022-12-04T00:03:39.579Z,100.82
2022-12-04T00:06:12.197Z,106.50
2022-12-04T00:08:39.215Z,105.78
2022-12-04T00:11:07.161Z,108.90
2022-12-04T00:13:34.586Z,101.78
2022-12-04T00:16:01.321Z,114.97
2022-12-04T00:18:27.915Z,108.30
2022-12-04T00:20:54.456Z,106.35
2022-12-04T00:23:21.041Z,112.57
2022-12-04T00:25:48.675Z,105.53
2022-12-04T00:28:18.716Z,115.40
2022-12-04T00:30:45.816Z,110.07
2022-12-04T00:33:13.697Z,112.88
2022-12-04T00:35:40.836Z,103.85
2022-12-04T00:38:07.674Z,103.78
2022-12-04T00:40:34.184Z,108.03
2022-12-04T00:43:00.999Z,113.47
2022-12-04T00:45:27.473Z,116.00
2022-12-04T00:47:54.012Z,109.95
2022-12-04T00:50:20.422Z,119.97
2022-12-04T00:52:46.839Z,113.20
2022-12-04T00:55:13.274Z,113.80
2022-12-04T00:57:39.923Z,117.32
2022-12-04T01:00:07.208Z,115.20
2022-12-04T01:02:33.710Z,119.60
2022-12-04T01:05:01.570Z,114.32
2022-12-04T01:07:28.120Z,115.70
2022-12-04T01:09:54.745Z,114.53
2022-12-04T01:12:21.435Z,111.72
2022-12-04T01:14:47.850Z,112.10
2022-12-04T01:17:14.243Z,113.82
2022-12-04T01:19:40.679Z,112.45
2022-12-04T01:22:07.068Z,111.75
2022-12-04T01:24:33.439Z,104.00
2022-12-04T01:26:59.873Z,112.60
2022-12-04T01:29:26.268Z,103.75
2022-12-04T01:31:52.787Z,118.18
2022-12-04T01:34:19.345Z,119.05
2022-12-04T01:36:45.807Z,120.78
2022-12-04T01:39:12.288Z,125.55
2022-12-04T01:41:38.713Z,110.18
2022-12-04T01:44:20.605Z,113.40
2022-12-04T01:46:58.173Z,119.55
2022-12-04T01:49:33.516Z,119.55
2022-12-04T01:52:13.797Z,125.47
2022-12-04T01:54:44.105Z,112.40
2022-12-04T01:57:18.243Z,120.40
2022-12-04T02:00:08.934Z,116.90
2022-12-04T02:02:39.247Z,118.45
2022-12-04T02:05:10.064Z,123.18
2022-12-04T02:07:38.331Z,127.13
2022-12-04T02:10:08.644Z,122.65
2022-12-04T02:12:50.389Z,107.75
2022-12-04T02:18:03.787Z,115.95
2022-12-04T02:20:43.349Z,113.63
2022-12-04T02:23:15.921Z,118.43
2022-12-04T02:25:54.636Z,115.85
2022-12-04T02:28:28.443Z,121.32
2022-12-04T02:31:00.753Z,119.35
2022-12-04T02:33:28.635Z,123.47
2022-12-04T02:36:06.452Z,122.93
2022-12-04T02:38:37.339Z,128.35
2022-12-04T02:41:13.403Z,120.10
2022-12-04T02:43:55.820Z,119.05
2022-12-04T02:46:32.238Z,127.78
2022-12-04T02:49:03.642Z,119.40
2022-12-04T02:51:34.013Z,124.25
2022-12-04T02:54:18.462Z,122.50
2022-12-04T02:56:47.667Z,129.23
2022-12-04T02:59:22.797Z,126.72
2022-12-04T03:01:54.616Z,129.77
2022-12-04T03:04:25.474Z,120.18
2022-12-04T03:06:59.640Z,115.78
2022-12-04T03:09:41.114Z,127.90
2022-12-04T03:12:20.124Z,120.70
2022-12-04T03:15:13.611Z,126.38
2022-12-04T03:17:50.754Z,123.03
2022-12-04T03:20:17.496Z,114.85
2022-12-04T03:22:48.980Z,124.53
2022-12-04T03:28:00.034Z,133.23
2022-12-04T03:30:35.518Z,124.57
2022-12-04T03:33:07.894Z,125.88
2022-12-04T03:35:44.776Z,122.60
2022-12-04T03:38:49.859Z,127.90
2022-12-04T03:41:21.968Z,122.40
2022-12-04T03:44:06.607Z,127.93
2022-12-04T03:46:45.833Z,132.35
2022-12-04T03:49:52.528Z,128.05
2022-12-04T03:52:34.014Z,128.77
2022-12-04T03:55:08.630Z,127.53
2022-12-04T03:57:42.301Z,137.88
2022-12-04T04:00:22.463Z,122.05
2022-12-04T04:02:52.948Z,122.38
2022-12-04T04:05:20.864Z,120.18
2022-12-04T04:07:55.463Z,123.05
2022-12-04T04:10:26.469Z,115.50
2022-12-04T04:13:21.933Z,125.90
2022-12-04T04:16:12.285Z,122.60
2022-12-04T04:19:00.356Z,122.93
2022-12-04T04:21:51.596Z,128.15
2022-12-04T04:24:42.200Z,131.80
2022-12-04T04:27:08.794Z,129.10
2022-12-04T04:29:35.778Z,121.63
2022-12-04T04:32:08.124Z,131.20
2022-12-04T04:35:00.414Z,139.68
2022-12-04T04:37:56.067Z,137.57
2022-12-04T04:40:29.181Z,125.38
2022-12-04T04:43:02.265Z,126.10
2022-12-04T04:45:38.563Z,131.70
2022-12-04T04:48:26.414Z,133.60
2022-12-04T04:50:53.881Z,123.25
2022-12-04T04:53:28.685Z,129.05
2022-12-04T04:55:55.944Z,119.32
2022-12-04T04:58:22.680Z,124.63
2022-12-04T05:01:19.047Z,128.00
2022-12-04T05:03:45.615Z,118.25
2022-12-04T05:06:12.320Z,121.30
2022-12-04T05:08:39.382Z,119.18
2022-12-04T05:11:06.737Z,120.97
2022-12-04T05:13:33.185Z,123.55
2022-12-04T05:16:01.932Z,120.15
2022-12-04T05:18:29.146Z,118.93
2022-12-04T05:20:56.053Z,113.93
2022-12-04T05:23:22.952Z,112.28
2022-12-04T05:25:49.727Z,118.28
2022-12-04T05:28:16.733Z,114.22
2022-12-04T05:30:43.236Z,120.45
2022-12-04T05:33:10.855Z,115.30
2022-12-04T05:35:37.248Z,115.13
2022-12-04T05:38:03.646Z,120.47
2022-12-04T05:40:30.052Z,122.38
2022-12-04T05:42:57.203Z,115.60
2022-12-04T05:45:23.605Z,113.30
2022-12-04T05:47:50.001Z,113.47
2022-12-04T05:50:16.449Z,119.38
2022-12-04T05:52:42.865Z,115.70
2022-12-04T05:55:09.367Z,126.32
2022-12-04T05:57:35.749Z,113.57
2022-12-04T06:00:02.167Z,114.95
2022-12-04T06:02:28.690Z,120.50
2022-12-04T06:04:55.128Z,110.68
2022-12-04T06:07:21.541Z,117.85
2022-12-04T06:09:47.942Z,114.95
2022-12-04T06:12:14.364Z,112.60
2022-12-04T06:14:40.798Z,113.20
2022-12-04T06:17:07.342Z,115.22
2022-12-04T06:19:33.857Z,115.70
2022-12-04T06:22:00.327Z,102.97
2022-12-04T06:24:26.741Z,115.38
2022-12-04T06:29:46.211Z,109.97
2022-12-04T06:32:16.477Z,111.70
2022-12-04T06:34:51.469Z,119.78
2022-12-04T06:37:17.915Z,103.60
2022-12-04T06:39:44.401Z,101.55
2022-12-04T06:42:10.796Z,105.68
2022-12-04T06:44:37.227Z,111.13
2022-12-04T06:47:03.603Z,114.15
2022-12-04T06:49:29.984Z,106.90
2022-12-04T06:51:56.863Z,111.40
2022-12-04T06:54:23.263Z,111.00
2022-12-04T06:56:49.862Z,110.28
2022-12-04T06:59:16.269Z,106.43
2022-12-04T07:01:42.783Z,107.47
2022-12-04T07:04:09.347Z,102.38
2022-12-04T07:06:38.877Z,105.57
2022-12-04T07:09:06.717Z,107.20
2022-12-04T07:11:34.115Z,105.20
2022-12-04T07:14:00.546Z,108.03
2022-12-04T07:16:28.225Z,109.03
2022-12-04T07:18:56.460Z,112.55
2022-12-04T07:21:29.181Z,106.22
2022-12-04T07:23:58.171Z,108.90
2022-12-04T07:26:26.351Z,113.80
2022-12-04T07:28:53.975Z,118.93
2022-12-04T07:31:23.049Z,104.88
2022-12-04T07:33:49.528Z,111.13
2022-12-04T07:36:22.050Z,110.65
2022-12-04T07:38:48.849Z,116.47
2022-12-04T07:41:15.715Z,116.20
2022-12-04T07:43:42.849Z,116.22
2022-12-04T07:46:15.519Z,110.85
2022-12-04T07:48:42.360Z,114.40
2022-12-04T07:51:14.220Z,114.47
2022-12-04T07:53:41.056Z,116.13
2022-12-04T07:56:07.797Z,113.63
2022-12-04T07:58:34.469Z,110.15
2022-12-04T08:01:12.307Z,111.45
2022-12-04T08:03:46.840Z,113.00
2022-12-04T08:06:14.870Z,109.47
2022-12-04T08:08:41.317Z,127.57
2022-12-04T08:11:10.649Z,112.45
2022-12-04T08:13:37.506Z,116.30
2022-12-04T08:16:05.089Z,116.03
2022-12-04T08:18:32.159Z,115.00
2022-12-04T08:21:11.068Z,117.47
2022-12-04T08:23:38.984Z,120.80
2022-12-04T08:26:06.134Z,114.97
2022-12-04T08:28:33.931Z,118.45
2022-12-04T08:31:06.208Z,112.88
2022-12-04T08:33:33.519Z,112.18
2022-12-04T08:36:00.151Z,116.32
2022-12-04T08:38:26.693Z,110.00
2022-12-04T08:40:53.066Z,117.10
2022-12-04T08:43:19.489Z,112.25
2022-12-04T08:45:55.154Z,112.30
2022-12-04T08:48:21.844Z,118.47
2022-12-04T08:50:48.214Z,113.90
2022-12-04T08:53:14.652Z,112.80
2022-12-04T08:55:41.323Z,123.72
2022-12-04T08:58:07.771Z,117.22
2022-12-04T09:00:34.266Z,112.68
2022-12-04T09:03:00.791Z,112.65
2022-12-04T09:05:27.206Z,112.45
2022-12-04T09:07:53.719Z,106.82
2022-12-04T09:10:20.327Z,109.60
2022-12-04T09:12:46.816Z,121.05
2022-12-04T09:15:13.410Z,125.68
2022-12-04T09:17:39.878Z,119.82
2022-12-04T09:20:08.112Z,109.47
2022-12-04T09:23:01.797Z,109.22
2022-12-04T09:25:22.251Z,116.85
2022-12-04T09:27:48.683Z,110.15
2022-12-04T09:30:15.237Z,118.40
2022-12-04T09:32:41.709Z,117.50
2022-12-04T09:35:08.711Z,111.18
2022-12-04T09:37:36.653Z,106.28
2022-12-04T09:40:07.586Z,113.88
2022-12-04T09:42:36.996Z,106.97
2022-12-04T09:45:25.663Z,119.18
2022-12-04T09:48:01.316Z,111.15
2022-12-04T09:50:43.559Z,108.90
2022-12-04T09:53:22.097Z,97.97
2022-12-04T09:56:01.382Z,109.07
2022-12-04T09:58:46.799Z,103.78
2022-12-04T10:01:29.106Z,114.55
2022-12-04T10:04:00.009Z,112.57
2022-12-04T10:06:43.909Z,105.75
2022-12-04T10:09:30.578Z,101.65
2022-12-04T10:11:59.947Z,106.82
2022-12-04T10:14:56.102Z,106.80
2022-12-04T10:17:49.650Z,101.13
2022-12-04T10:20:41.105Z,116.43
2022-12-04T10:23:36.969Z,104.90
2022-12-04T10:26:05.329Z,112.13
2022-12-04T10:28:33.677Z,108.78
2022-12-04T10:31:03.514Z,101.18
2022-12-04T10:34:02.106Z,108.05
2022-12-04T10:36:32.689Z,93.82
2022-12-04T10:39:00.693Z,101.37
2022-12-04T10:42:01.478Z,103.20
2022-12-04T10:44:27.952Z,101.32
2022-12-04T10:46:58.525Z,102.28
2022-12-04T10:49:28.541Z,103.72
2022-12-04T10:51:55.594Z,103.25
2022-12-04T10:54:33.908Z,98.07
2022-12-04T10:57:03.327Z,101.18
2022-12-04T10:59:30.429Z,102.53
2022-12-04T11:02:14.860Z,101.03
2022-12-04T11:04:41.985Z,105.00
2022-12-04T11:07:26.358Z,96.05
2022-12-04T11:10:05.264Z,128.60
2022-12-04T11:12:32.553Z,105.38
2022-12-04T11:15:07.792Z,96.88
2022-12-04T11:17:34.348Z,93.07
2022-12-04T11:20:15.257Z,102.28
2022-12-04T11:22:54.618Z,101.90
2022-12-04T11:25:23.437Z,94.03
2022-12-04T11:27:54.155Z,93.40
2022-12-04T11:30:26.354Z,95.43
2022-12-04T11:32:54.226Z,92.95
2022-12-04T11:35:23.263Z,104.72
2022-12-04T11:37:57.061Z,103.20
2022-12-04T11:40:25.559Z,98.57
2022-12-04T11:43:12.843Z,106.38
2022-12-04T11:45:40.022Z,102.72
2022-12-04T11:48:18.402Z,99.15
2022-12-04T11:51:06.522Z,102.90
2022-12-04T11:53:41.594Z,105.32
2022-12-04T11:56:16.853Z,106.32
2022-12-04T11:58:52.737Z,100.22
2022-12-04T12:01:57.969Z,97.55
2022-12-04T12:05:15.654Z,97.78
2022-12-04T12:08:03.695Z,99.25
2022-12-04T12:10:44.923Z,105.00
2022-12-04T12:13:41.959Z,97.40
2022-12-04T12:16:41.058Z,94.45
2022-12-04T12:19:34.950Z,99.57
2022-12-04T12:22:38.670Z,96.18
2022-12-04T12:25:18.913Z,97.22
2022-12-04T12:28:11.308Z,96.10
2022-12-04T12:30:52.402Z,95.97
2022-12-04T12:33:34.585Z,91.78
2022-12-04T12:36:08.450Z,90.28
2022-12-04T12:38:44.483Z,83.65
2022-12-04T12:41:15.461Z,88.32
2022-12-04T12:43:47.313Z,91.18
2022-12-04T12:46:19.922Z,101.78
2022-12-04T12:49:13.171Z,94.75
2022-12-04T12:51:51.365Z,86.15
2022-12-04T12:54:31.276Z,83.72
2022-12-04T12:57:06.313Z,86.80
2022-12-04T12:59:34.034Z,89.45
2022-12-04T13:02:29.269Z,90.70
2022-12-04T13:05:01.140Z,83.45
2022-12-04T13:07:27.622Z,88.85
2022-12-04T13:10:12.544Z,86.25
2022-12-04T13:12:47.327Z,92.25
2022-12-04T13:15:16.577Z,89.10
2022-12-04T13:17:45.126Z,92.93
2022-12-04T13:20:22.148Z,86.25
2022-12-04T13:22:53.932Z,85.10
2022-12-04T13:25:31.327Z,89.93
2022-12-04T13:27:57.697Z,90.30
2022-12-04T13:30:32.746Z,92.50
2022-12-04T13:33:23.468Z,86.60
2022-12-04T13:36:11.585Z,88.00
2022-12-04T13:39:09.016Z,87.28
2022-12-04T13:41:38.697Z,94.05
2022-12-04T13:44:19.726Z,87.20
2022-12-04T13:46:58.197Z,95.80
2022-12-04T13:49:30.777Z,90.25
2022-12-04T13:51:59.040Z,81.88
2022-12-04T13:54:36.502Z,88.22
2022-12-04T13:57:15.008Z,91.45
2022-12-04T13:59:42.740Z,84.65
2022-12-04T14:02:35.263Z,101.35
2022-12-04T14:05:05.381Z,93.03
2022-12-04T14:07:37.738Z,93.32
2022-12-04T14:10:07.640Z,93.45
2022-12-04T14:12:39.682Z,103.38
2022-12-04T14:15:21.664Z,95.57
2022-12-04T14:18:06.961Z,90.28
2022-12-04T14:20:34.739Z,91.07
2022-12-04T14:23:35.038Z,90.07
2022-12-04T14:26:03.161Z,95.25
2022-12-04T14:28:37.327Z,97.63
2022-12-04T14:31:14.308Z,96.10
2022-12-04T14:33:55.035Z,90.38
2022-12-04T14:36:28.044Z,96.22
2022-12-04T14:39:24.347Z,98.88
2022-12-04T14:41:52.178Z,95.35
2022-12-04T14:44:29.476Z,106.03
2022-12-04T14:47:03.370Z,108.47
2022-12-04T14:49:32.516Z,103.00
2022-12-04T14:52:14.922Z,99.05
2022-12-04T14:55:17.718Z,87.68
2022-12-04T14:58:24.094Z,94.88
2022-12-04T15:00:52.533Z,94.15
2022-12-04T15:03:19.343Z,97.75
2022-12-04T15:05:45.853Z,100.70
2022-12-04T15:08:14.205Z,103.13
2022-12-04T15:11:06.578Z,119.65
2022-12-04T15:13:34.798Z,105.43
2022-12-04T15:16:21.943Z,101.25
2022-12-04T15:19:01.005Z,93.65
2022-12-04T15:21:38.822Z,103.55
2022-12-04T15:24:20.026Z,101.70
2022-12-04T15:26:48.360Z,100.40
2022-12-04T15:29:22.175Z,105.72
2022-12-04T15:31:56.668Z,107.00
2022-12-04T15:34:37.832Z,105.43
2022-12-04T15:37:08.576Z,117.82
2022-12-04T15:39:37.914Z,105.18
2022-12-04T15:42:23.744Z,106.72
2022-12-04T15:44:53.540Z,98.57
2022-12-04T15:47:25.748Z,102.22
2022-12-04T15:49:52.256Z,96.18
2022-12-04T15:52:23.561Z,104.18
2022-12-04T15:54:57.843Z,107.03
2022-12-04T15:57:34.116Z,104.90
2022-12-04T16:00:05.136Z,112.70
2022-12-04T16:02:39.534Z,111.55
2022-12-04T16:05:21.126Z,110.38
2022-12-04T16:10:21.340Z,102.65
2022-12-04T16:12:56.795Z,102.93
2022-12-04T16:15:25.603Z,102.78
2022-12-04T16:17:52.939Z,112.72
2022-12-04T16:20:20.551Z,104.00
2022-12-04T16:22:52.181Z,108.93
2022-12-04T16:25:18.645Z,98.32
2022-12-04T16:27:45.045Z,108.78
2022-12-04T16:30:13.796Z,103.45
2022-12-04T16:32:40.228Z,113.00
2022-12-04T16:35:07.038Z,108.40
2022-12-04T16:37:33.592Z,104.03
2022-12-04T16:40:00.079Z,105.95
2022-12-04T16:42:29.440Z,104.40
2022-12-04T16:44:56.601Z,98.45
2022-12-04T16:47:23.206Z,99.72
2022-12-04T16:49:51.550Z,103.80
2022-12-04T16:52:18.749Z,94.05
2022-12-04T16:54:45.418Z,89.65
2022-12-04T16:57:11.936Z,95.30
2022-12-04T16:59:38.567Z,98.22
2022-12-04T17:02:17.447Z,104.05
2022-12-04T17:04:44.071Z,101.32
2022-12-04T17:07:10.559Z,99.05
2022-12-04T17:09:37.040Z,98.78
2022-12-04T17:12:03.588Z,97.57
2022-12-04T17:14:29.992Z,100.47
2022-12-04T17:16:58.627Z,93.45
2022-12-04T17:19:25.113Z,88.65
2022-12-04T17:21:51.533Z,88.57
2022-12-04T17:24:17.968Z,86.07
2022-12-04T17:26:44.407Z,86.93
2022-12-04T17:29:10.834Z,88.97
2022-12-04T17:31:37.396Z,81.82
2022-12-04T17:34:03.853Z,81.57
2022-12-04T17:36:30.325Z,79.50
2022-12-04T17:38:58.689Z,76.93
2022-12-04T17:41:25.255Z,81.75
2022-12-04T17:43:51.796Z,84.55
2022-12-04T17:46:21.597Z,82.63
2022-12-04T17:48:48.802Z,83.03
2022-12-04T17:51:19.257Z,88.07
2022-12-04T17:53:46.950Z,75.65
2022-12-04T17:56:17.248Z,76.45
2022-12-04T17:58:44.980Z,78.43
2022-12-04T18:01:14.792Z,81.47
2022-12-04T18:03:43.252Z,83.15
2022-12-04T18:06:14.850Z,79.50
2022-12-04T18:08:46.580Z,78.43
2022-12-04T18:11:16.887Z,75.10
2022-12-04T18:13:43.291Z,77.03
2022-12-04T18:16:11.192Z,79.13
2022-12-04T18:18:39.230Z,75.90
2022-12-04T18:21:10.797Z,76.55
2022-12-04T18:26:06.835Z,72.55
2022-12-04T18:28:33.298Z,69.55
2022-12-04T18:31:05.276Z,78.25
2022-12-04T18:33:33.516Z,77.93
2022-12-04T18:36:00.683Z,69.25
2022-12-04T18:38:30.510Z,74.68
2022-12-04T18:41:02.777Z,69.43
2022-12-04T18:43:29.409Z,77.30
2022-12-04T18:46:07.676Z,70.10
2022-12-04T18:48:35.482Z,74.53
2022-12-04T18:51:02.422Z,71.72
2022-12-04T18:53:28.986Z,73.32
2022-12-04T18:55:55.520Z,68.80
2022-12-04T18:58:22.905Z,83.35
2022-12-04T19:00:51.624Z,84.57
2022-12-04T19:03:18.373Z,80.82
2022-12-04T19:05:51.080Z,88.65
2022-12-04T19:08:17.780Z,78.68
2022-12-04T19:10:44.335Z,94.45
2022-12-04T19:13:10.773Z,94.53
2022-12-04T19:15:42.859Z,99.82
2022-12-04T19:18:09.437Z,93.32
2022-12-04T19:20:39.613Z,93.35
2022-12-04T19:23:06.068Z,96.30
2022-12-04T19:25:32.507Z,99.80
2022-12-04T19:27:59.122Z,94.22
2022-12-04T19:30:26.423Z,91.18
2022-12-04T19:32:52.938Z,108.78
2022-12-04T19:35:19.378Z,96.47
2022-12-04T19:37:51.120Z,103.22
2022-12-04T19:40:19.216Z,101.25
2022-12-04T19:42:45.650Z,103.63
2022-12-04T19:45:12.198Z,107.80
2022-12-04T19:47:38.842Z,112.78
2022-12-04T19:50:06.119Z,103.93
2022-12-04T19:52:33.547Z,100.70
2022-12-04T19:54:59.994Z,101.47
2022-12-04T19:57:26.463Z,106.03
2022-12-04T19:59:52.853Z,95.65
2022-12-04T20:02:19.768Z,102.90
2022-12-04T20:04:46.403Z,94.78
2022-12-04T20:07:12.884Z,98.68
2022-12-04T20:09:39.404Z,101.18
2022-12-04T20:12:06.443Z,105.03
2022-12-04T20:14:32.919Z,109.65
2022-12-04T20:17:01.524Z,102.63
2022-12-04T20:19:28.005Z,102.45
2022-12-04T20:21:59.141Z,101.55
2022-12-04T20:26:52.545Z,102.80
2022-12-04T20:29:19.102Z,91.32
2022-12-04T20:31:46.635Z,105.32
2022-12-04T20:34:15.498Z,93.00
2022-12-04T20:36:44.060Z,97.90
2022-12-04T20:39:11.923Z,95.50
2022-12-04T20:41:39.240Z,100.32
2022-12-04T20:44:07.734Z,101.47
2022-12-04T20:46:37.016Z,105.10
2022-12-04T20:49:06.432Z,96.43
2022-12-04T20:51:39.477Z,99.75
2022-12-04T20:54:08.812Z,109.80
2022-12-04T20:56:37.601Z,104.95
2022-12-04T20:59:07.547Z,103.78
2022-12-04T21:02:00.846Z,104.03
2022-12-04T21:04:27.250Z,108.70
2022-12-04T21:06:53.647Z,104.75
2022-12-04T21:09:22.986Z,97.93
2022-12-04T21:11:54.927Z,110.03
2022-12-04T21:14:46.093Z,114.05
2022-12-04T21:17:18.293Z,107.88
2022-12-04T21:19:46.981Z,100.00
2022-12-04T21:22:13.954Z,105.47
2022-12-04T21:24:42.048Z,106.32
2022-12-04T21:27:12.411Z,102.22
2022-12-04T21:29:43.061Z,92.63
2022-12-04T21:32:09.491Z,99.20
2022-12-04T21:34:35.931Z,103.57
2022-12-04T21:37:02.385Z,101.60
2022-12-04T21:39:28.803Z,104.78
2022-12-04T21:42:13.688Z,102.95
2022-12-04T21:44:40.129Z,100.82
2022-12-04T21:47:06.760Z,92.43
2022-12-04T21:49:33.188Z,102.60
2022-12-04T21:51:59.791Z,99.47
2022-12-04T21:54:27.736Z,100.55
2022-12-04T21:56:55.148Z,96.18
2022-12-04T21:59:22.415Z,95.82
2022-12-04T22:01:48.944Z,98.85
2022-12-04T22:04:15.876Z,93.82
2022-12-04T22:06:42.577Z,83.15
2022-12-04T22:09:11.436Z,88.20
2022-12-04T22:11:41.318Z,99.22
2022-12-04T22:14:08.652Z,97.20
2022-12-04T22:16:41.293Z,93.20
2022-12-04T22:19:09.328Z,93.68
2022-12-04T22:21:35.695Z,94.10
2022-12-04T22:24:03.669Z,94.60
2022-12-04T22:26:31.457Z,84.40
2022-12-04T22:28:57.945Z,91.90
2022-12-04T22:31:26.973Z,91.13
2022-12-04T22:33:55.540Z,103.65
2022-12-04T22:36:24.799Z,88.13
2022-12-04T22:41:38.478Z,100.72
2022-12-04T22:44:05.957Z,92.22
2022-12-04T22:46:32.981Z,89.18
2022-12-04T22:48:59.954Z,88.85
2022-12-04T22:51:27.207Z,102.50
2022-12-04T22:53:55.805Z,89.53
2022-12-04T22:56:30.206Z,92.68
2022-12-04T22:58:58.041Z,96.75
2022-12-04T23:01:30.176Z,100.95
2022-12-04T23:03:57.445Z,99.05
2022-12-04T23:06:26.611Z,93.30
2022-12-04T23:09:02.296Z,93.28
2022-12-04T23:11:29.247Z,94.53
2022-12-04T23:13:59.947Z,99.55
2022-12-04T23:16:28.246Z,85.60
2022-12-04T23:18:54.692Z,90.70
2022-12-04T23:21:22.317Z,93.70
2022-12-04T23:23:50.620Z,92.90
2022-12-04T23:26:22.779Z,93.68
2022-12-04T23:28:49.188Z,88.20
2022-12-04T23:31:16.463Z,93.28
2022-12-04T23:33:43.065Z,92.05
2022-12-04T23:36:11.316Z,92.72
2022-12-04T23:38:39.222Z,93.03
2022-12-04T23:41:13.571Z,104.88
2022-12-04T23:43:40.717Z,93.90
2022-12-04T23:46:11.272Z,93.20
2022-12-04T23:48:42.582Z,90.85
2022-12-04T23:51:10.594Z,93.03
2022-12-04T23:53:37.593Z,94.25
2022-12-04T23:56:08.451Z,88.47
2022-12-04T23:58:36.433Z,92.47
